createdAt,value
2023-02-07T00:04:28.695Z,57.93
2023-02-07T00:09:50.504Z,55.23
2023-02-07T00:15:12.021Z,64.37
2023-02-07T00:20:33.638Z,53.83
2023-02-07T00:25:55.074Z,56.10
2023-02-07T00:31:20.140Z,60.20
2023-02-07T00:36:42.603Z,72.67
2023-02-07T00:42:04.186Z,66.93
2023-02-07T00:47:25.499Z,60.73
2023-02-07T00:52:46.862Z,57.10
2023-02-07T00:58:08.143Z,54.23
2023-02-07T01:03:29.514Z,72.20
2023-02-07T01:08:51.036Z,66.30
2023-02-07T01:14:12.425Z,50.40
2023-02-07T01:19:33.876Z,48.40
2023-02-07T01:24:56.178Z,50.80
2023-02-07T01:30:17.657Z,48.27
2023-02-07T01:35:39.617Z,44.40
2023-02-07T01:41:01.551Z,46.30
2023-02-07T01:46:22.953Z,49.13
2023-02-07T01:51:56.363Z,44.30
2023-02-07T01:57:21.285Z,49.50
2023-02-07T02:02:43.264Z,41.73
2023-02-07T02:08:07.146Z,44.13
2023-02-07T02:13:45.227Z,44.80
2023-02-07T02:19:23.675Z,58.67
2023-02-07T02:25:23.013Z,52.37
2023-02-07T02:31:10.966Z,49.93
2023-02-07T02:36:56.905Z,45.20
2023-02-07T02:42:27.529Z,44.97
2023-02-07T02:47:51.016Z,47.20
2023-02-07T02:53:14.088Z,47.23
2023-02-07T02:59:00.482Z,48.17
2023-02-07T03:04:45.962Z,45.77
2023-02-07T03:10:31.501Z,52.47
2023-02-07T03:16:11.116Z,47.47
2023-02-07T03:21:40.122Z,46.07
2023-02-07T03:27:24.024Z,50.70
2023-02-07T03:32:52.627Z,45.30
2023-02-07T03:38:14.887Z,48.30
2023-02-07T03:43:38.806Z,53.97
2023-02-07T03:49:00.033Z,54.50
2023-02-07T03:54:21.758Z,47.23
2023-02-07T03:59:43.334Z,54.33
2023-02-07T04:05:05.105Z,42.90
2023-02-07T04:10:26.707Z,39.80
2023-02-07T04:15:48.291Z,40.53
2023-02-07T04:21:10.156Z,53.60
2023-02-07T04:26:32.878Z,86.43
2023-02-07T04:31:54.401Z,52.40
2023-02-07T04:37:16.498Z,41.20
2023-02-07T04:42:37.755Z,37.43
2023-02-07T04:47:59.415Z,42.17
2023-02-07T04:53:20.962Z,43.33
2023-02-07T04:58:42.181Z,40.23
2023-02-07T05:04:03.746Z,37.93
2023-02-07T05:09:25.637Z,43.73
2023-02-07T05:14:47.180Z,37.60
2023-02-07T05:20:09.227Z,42.93
2023-02-07T05:25:31.030Z,42.13
2023-02-07T05:30:56.937Z,35.73
2023-02-07T05:36:18.360Z,39.30
2023-02-07T05:41:39.686Z,42.37
2023-02-07T05:47:00.939Z,39.23
2023-02-07T05:52:22.103Z,35.80
2023-02-07T05:57:44.636Z,34.47
2023-02-07T06:03:06.062Z,39.47
2023-02-07T06:08:27.645Z,42.50
2023-02-07T06:13:49.139Z,43.10
2023-02-07T06:19:14.015Z,41.93
2023-02-07T06:24:35.581Z,44.60
2023-02-07T06:29:57.115Z,37.50
2023-02-07T06:35:18.688Z,38.20
2023-02-07T06:40:40.272Z,44.10
2023-02-07T06:46:01.998Z,41.90
2023-02-07T06:51:23.875Z,37.00
2023-02-07T06:56:45.204Z,38.50
2023-02-07T07:02:07.002Z,31.57
2023-02-07T07:07:28.706Z,38.73
2023-02-07T07:12:50.632Z,30.87
2023-02-07T07:18:11.881Z,34.23
2023-02-07T07:23:33.466Z,33.83
2023-02-07T07:28:58.435Z,31.80
2023-02-07T07:34:20.155Z,36.40
2023-02-07T07:39:44.268Z,33.10
2023-02-07T07:45:06.099Z,36.07
2023-02-07T07:50:28.630Z,44.60
2023-02-07T07:55:54.729Z,51.07
2023-02-07T08:01:16.283Z,44.20
2023-02-07T08:06:37.932Z,37.23
2023-02-07T08:11:59.510Z,37.57
2023-02-07T08:17:21.158Z,43.03
2023-02-07T08:22:42.629Z,33.37
2023-02-07T08:28:04.888Z,39.90
2023-02-07T08:33:26.724Z,42.40
2023-02-07T08:38:49.263Z,43.70
2023-02-07T08:44:11.717Z,42.90
2023-02-07T08:49:32.941Z,43.73
2023-02-07T08:54:54.582Z,42.20
2023-02-07T09:00:16.846Z,51.07
2023-02-07T09:05:38.450Z,60.23
2023-02-07T09:11:00.019Z,69.13
2023-02-07T09:16:23.441Z,62.73
2023-02-07T09:21:45.209Z,58.40
2023-02-07T09:27:06.856Z,63.13
2023-02-07T09:32:28.265Z,64.30
2023-02-07T09:37:52.551Z,63.93
2023-02-07T09:43:38.102Z,69.47
2023-02-07T09:49:08.171Z,78.77
2023-02-07T09:54:49.221Z,79.50
2023-02-07T10:00:32.960Z,84.57
2023-02-07T10:06:12.818Z,76.07
2023-02-07T10:11:48.042Z,80.33
2023-02-07T10:17:19.261Z,87.33
2023-02-07T10:23:02.175Z,84.60
2023-02-07T10:28:57.450Z,78.60
2023-02-07T10:34:41.634Z,73.10
2023-02-07T10:40:21.254Z,64.10
2023-02-07T10:45:43.368Z,63.77
2023-02-07T10:51:26.776Z,58.23
2023-02-07T10:57:02.221Z,42.40
2023-02-07T11:02:32.656Z,42.60
2023-02-07T11:08:15.914Z,40.73
2023-02-07T11:13:49.611Z,37.57
2023-02-07T11:19:24.657Z,37.90
2023-02-07T11:24:48.198Z,39.33
2023-02-07T11:30:19.286Z,38.10
2023-02-07T11:35:43.440Z,49.57
2023-02-07T11:41:07.068Z,51.83
2023-02-07T11:46:36.268Z,52.47
2023-02-07T11:52:01.582Z,49.43
2023-02-07T11:57:24.969Z,43.37
2023-02-07T12:02:52.317Z,43.13
2023-02-07T12:08:18.398Z,48.60
2023-02-07T12:13:46.588Z,48.27
2023-02-07T12:19:28.289Z,42.27
2023-02-07T12:25:13.636Z,43.33
2023-02-07T12:30:58.643Z,39.17
2023-02-07T12:36:36.223Z,37.40
2023-02-07T12:42:20.836Z,43.20
2023-02-07T12:48:00.883Z,46.87
2023-02-07T12:53:31.122Z,41.57
2023-02-07T12:59:00.589Z,40.63
2023-02-07T13:04:50.204Z,42.07
2023-02-07T13:10:26.163Z,39.47
2023-02-07T13:16:02.432Z,39.20
2023-02-07T13:21:29.301Z,36.73
2023-02-07T13:27:07.701Z,36.90
2023-02-07T13:32:29.444Z,42.43
2023-02-07T13:38:02.908Z,39.20
2023-02-07T13:44:09.335Z,44.17
2023-02-07T13:49:50.369Z,43.13
2023-02-07T13:55:32.821Z,39.07
2023-02-07T14:01:15.518Z,43.20
2023-02-07T14:07:12.050Z,46.07
2023-02-07T14:12:40.958Z,48.67
2023-02-07T14:18:26.814Z,50.33
2023-02-07T14:24:10.133Z,43.67
2023-02-07T14:29:31.583Z,45.17
2023-02-07T14:35:17.201Z,48.90
2023-02-07T14:40:44.364Z,49.57
2023-02-07T14:46:11.410Z,52.00
2023-02-07T14:51:41.139Z,51.67
2023-02-07T14:57:17.276Z,50.30
2023-02-07T15:02:40.174Z,56.07
2023-02-07T15:08:21.619Z,51.93
2023-02-07T15:13:46.081Z,53.90
2023-02-07T15:19:26.009Z,55.23
2023-02-07T15:24:51.818Z,57.87
2023-02-07T15:30:20.318Z,50.30
2023-02-07T15:35:41.963Z,53.83
2023-02-07T15:41:04.751Z,50.20
2023-02-07T15:46:42.829Z,52.77
2023-02-07T15:52:14.463Z,51.30
2023-02-07T15:57:43.098Z,52.00
2023-02-07T16:03:08.364Z,50.37
2023-02-07T16:08:33.481Z,53.07
2023-02-07T16:14:10.886Z,57.93
2023-02-07T16:19:33.478Z,57.67
2023-02-07T16:24:54.927Z,53.63
2023-02-07T16:30:20.915Z,58.37
2023-02-07T16:35:42.679Z,56.03
2023-02-07T16:41:06.059Z,54.97
2023-02-07T16:46:27.609Z,54.07
2023-02-07T16:51:49.055Z,59.60
2023-02-07T16:57:11.821Z,63.60
2023-02-07T17:02:33.405Z,64.43
2023-02-07T17:07:54.781Z,67.00
2023-02-07T17:13:16.466Z,68.83
2023-02-07T17:18:38.068Z,61.07
2023-02-07T17:23:59.682Z,67.00
2023-02-07T17:29:21.315Z,66.33
2023-02-07T17:34:42.968Z,72.03
2023-02-07T17:40:14.002Z,66.83
2023-02-07T17:45:37.194Z,70.60
2023-02-07T17:50:58.725Z,63.37
2023-02-07T17:56:24.494Z,71.50
2023-02-07T18:01:45.791Z,70.40
2023-02-07T18:07:07.253Z,70.53
2023-02-07T18:12:28.785Z,82.43
2023-02-07T18:17:51.840Z,85.17
2023-02-07T18:23:13.612Z,75.67
2023-02-07T18:28:35.143Z,69.77
2023-02-07T18:33:56.576Z,72.17
2023-02-07T18:39:18.281Z,87.93
2023-02-07T18:44:40.959Z,89.60
2023-02-07T18:50:02.461Z,95.47
2023-02-07T18:55:24.007Z,86.27
2023-02-07T19:00:45.498Z,99.57
2023-02-07T19:06:08.437Z,71.90
2023-02-07T19:11:32.739Z,69.17
2023-02-07T19:16:56.011Z,68.93
2023-02-07T19:22:26.676Z,140.03
2023-02-07T19:27:51.487Z,87.47
2023-02-07T19:33:12.972Z,85.57
2023-02-07T19:38:34.889Z,95.40
2023-02-07T19:43:56.367Z,74.53
2023-02-07T19:49:17.894Z,73.30
2023-02-07T19:54:39.070Z,75.53
2023-02-07T20:00:00.587Z,101.67
2023-02-07T20:05:22.124Z,90.07
2023-02-07T20:10:45.105Z,78.73
2023-02-07T20:16:13.260Z,75.50
2023-02-07T20:21:37.078Z,80.27
2023-02-07T20:26:58.393Z,84.10
2023-02-07T20:32:20.037Z,81.37
2023-02-07T20:37:41.432Z,82.57
2023-02-07T20:43:02.913Z,84.37
2023-02-07T20:48:24.383Z,80.87
2023-02-07T20:53:45.984Z,85.53
2023-02-07T20:59:08.103Z,86.37
2023-02-07T21:04:30.177Z,86.33
2023-02-07T21:09:51.776Z,97.10
2023-02-07T21:15:13.282Z,77.90
2023-02-07T21:20:37.537Z,78.27
2023-02-07T21:26:08.024Z,86.40
2023-02-07T21:31:31.191Z,89.70
2023-02-07T21:36:57.714Z,82.83
2023-02-07T21:42:18.861Z,83.43
2023-02-07T21:47:40.381Z,75.97
2023-02-07T21:53:01.879Z,87.57
2023-02-07T21:58:23.489Z,74.37
2023-02-07T22:03:47.240Z,75.60
2023-02-07T22:09:09.625Z,82.33
2023-02-07T22:14:32.366Z,78.10
2023-02-07T22:19:53.924Z,88.37
2023-02-07T22:25:15.455Z,86.47
2023-02-07T22:30:43.323Z,87.03
2023-02-07T22:36:05.474Z,91.23
2023-02-07T22:41:27.147Z,80.50
2023-02-07T22:46:48.381Z,85.43
2023-02-07T22:52:09.891Z,87.37
2023-02-07T22:57:31.494Z,87.03
2023-02-07T23:02:52.650Z,100.90
2023-02-07T23:08:13.945Z,100.50
2023-02-07T23:13:35.340Z,83.17
2023-02-07T23:19:02.471Z,81.17
2023-02-07T23:24:24.052Z,82.23
2023-02-07T23:29:45.476Z,85.13
2023-02-07T23:35:07.420Z,86.40
2023-02-07T23:40:29.493Z,85.67
2023-02-07T23:45:51.143Z,80.40
2023-02-07T23:51:13.931Z,84.30
2023-02-07T23:56:35.421Z,106.57
